Skip Navigation Links Skip Navigation Links

Current Weather

Lewis University, Romeoville, Ill.

For information only: do not use for flight planning or navigation.
Latest weather
Observation time Wednesday, October 27, 2021 1:15 AM CDT
Local time Wednesday, October 27, 2021 1:44 AM CDT
Flight conditions Visual Meteorological Conditions
Winds
Wind speed calm
Visibility 10 mi.
Sky condition
Ceiling unlimited
Sky clear
Temperature 40°F
Dewpoint 40°F
Altimeter 30.03 in.Hg
Derived measurements
Relative humidity 100%
Wind chill 40°F
Density altitude -600 ft.
Remarks
Fully automated report.
Automated weather observing station with precipitation discriminator.
METAR KLOT 270615Z AUTO 00000KT 10SM CLR 05/05 A3003 RMK AO2 T00450045

Settings

Location code

InnerDrive.Weather 4.0.6770.0 Release CLR 4.0.30319.42000
Copyright ©2018 Inner Drive Technology. All rights reserved. Portions Copyright ©1986-2018 David Braverman.

Find weather

Site navigation


Skip Navigation Links

Place info

Page info

PayPal - The safer, easier way to pay online!

Return home.

Copyright ©2021 Inner Drive Technology. Purveyors of fine, hand-crafted computer software. Page printed 2021-10-27T06:44:24 UTC.